sensor_id;sensor_type;location;lat;lon;timestamp;pressure;altitude;pressure_sealevel;temperature;humidity
61484;BME280;47349;55.640;37.692;2023-04-04T00:00:38;99113.53;;;8.42;99.51
61484;BME280;47349;55.640;37.692;2023-04-04T00:03:06;99103.38;;;8.37;99.50
61484;BME280;47349;55.640;37.692;2023-04-04T00:05:33;99101.41;;;8.23;99.27
61484;BME280;47349;55.640;37.692;2023-04-04T00:08:02;99102.06;;;8.25;100.00
61484;BME280;47349;55.640;37.692;2023-04-04T00:10:30;99112.25;;;8.21;99.58
61484;BME280;47349;55.640;37.692;2023-04-04T00:12:57;99106.25;;;8.19;100.00
61484;BME280;47349;55.640;37.692;2023-04-04T00:15:24;99111.59;;;8.19;100.00
61484;BME280;47349;55.640;37.692;2023-04-04T00:17:52;99096.94;;;8.15;100.00
61484;BME280;47349;55.640;37.692;2023-04-04T00:20:19;99114.75;;;8.23;100.00
61484;BME280;47349;55.640;37.692;2023-04-04T00:22:46;99107.81;;;8.06;100.00
61484;BME280;47349;55.640;37.692;2023-04-04T00:25:13;99096.13;;;8.07;100.00
61484;BME280;47349;55.640;37.692;2023-04-04T00:27:40;99110.28;;;8.15;100.00
61484;BME280;47349;55.640;37.692;2023-04-04T00:30:08;99107.50;;;8.09;100.00
61484;BME280;47349;55.640;37.692;2023-04-04T00:32:35;99106.69;;;8.00;100.00
61484;BME280;47349;55.640;37.692;2023-04-04T00:35:03;99102.66;;;8.04;100.00
61484;BME280;47349;55.640;37.692;2023-04-04T00:37:30;99101.84;;;8.04;100.00
61484;BME280;47349;55.640;37.692;2023-04-04T00:39:57;99104.00;;;8.08;100.00
61484;BME280;47349;55.640;37.692;2023-04-04T00:42:24;99105.13;;;8.14;100.00
61484;BME280;47349;55.640;37.692;2023-04-04T00:44:51;99098.13;;;8.13;100.00
61484;BME280;47349;55.640;37.692;2023-04-04T00:47:23;99118.31;;;8.07;100.00
61484;BME280;47349;55.640;37.692;2023-04-04T00:49:51;99099.31;;;8.02;100.00
61484;BME280;47349;55.640;37.692;2023-04-04T00:52:18;99117.22;;;7.93;100.00
61484;BME280;47349;55.640;37.692;2023-04-04T00:54:46;99090.25;;;7.88;100.00
61484;BME280;47349;55.640;37.692;2023-04-04T00:57:13;99108.41;;;7.93;100.00
61484;BME280;47349;55.640;37.692;2023-04-04T00:59:41;99102.38;;;7.91;100.00
61484;BME280;47349;55.640;37.692;2023-04-04T01:02:08;99103.09;;;7.85;100.00
61484;BME280;47349;55.640;37.692;2023-04-04T01:04:36;99109.03;;;7.95;100.00
61484;BME280;47349;55.640;37.692;2023-04-04T01:07:03;99082.75;;;7.84;100.00
61484;BME280;47349;55.640;37.692;2023-04-04T01:09:31;99093.06;;;7.87;100.00
61484;BME280;47349;55.640;37.692;2023-04-04T01:11:59;99103.06;;;7.93;100.00
61484;BME280;47349;55.640;37.692;2023-04-04T01:14:28;99110.72;;;7.88;100.00
61484;BME280;47349;55.640;37.692;2023-04-04T01:16:56;99086.44;;;7.75;100.00
61484;BME280;47349;55.640;37.692;2023-04-04T01:19:36;99100.75;;;7.82;100.00
61484;BME280;47349;55.640;37.692;2023-04-04T01:22:11;99090.78;;;7.76;100.00
61484;BME280;47349;55.640;37.692;2023-04-04T01:24:41;99094.59;;;7.73;100.00
61484;BME280;47349;55.640;37.692;2023-04-04T01:27:10;99085.50;;;7.59;100.00
61484;BME280;47349;55.640;37.692;2023-04-04T01:29:50;99094.16;;;7.61;100.00
61484;BME280;47349;55.640;37.692;2023-04-04T01:32:19;99102.47;;;7.66;100.00
61484;BME280;47349;55.640;37.692;2023-04-04T01:37:27;99083.81;;;7.58;100.00
61484;BME280;47349;55.640;37.692;2023-04-04T01:40:20;99086.81;;;7.63;100.00
61484;BME280;47349;55.640;37.692;2023-04-04T01:42:51;99086.16;;;7.53;100.00
61484;BME280;47349;55.640;37.692;2023-04-04T01:45:20;99090.16;;;7.49;100.00
61484;BME280;47349;55.640;37.692;2023-04-04T01:47:49;99073.53;;;7.39;100.00
61484;BME280;47349;55.640;37.692;2023-04-04T01:50:20;99087.69;;;7.39;100.00
61484;BME280;47349;55.640;37.692;2023-04-04T01:52:47;99087.69;;;7.39;100.00
61484;BME280;47349;55.640;37.692;2023-04-04T01:55:15;99085.22;;;7.30;100.00
61484;BME280;47349;55.640;37.692;2023-04-04T01:57:43;99104.19;;;7.35;100.00
61484;BME280;47349;55.640;37.692;2023-04-04T02:00:10;99085.06;;;7.31;100.00
61484;BME280;47349;55.640;37.692;2023-04-04T02:02:43;99104.38;;;7.33;100.00
61484;BME280;47349;55.640;37.692;2023-04-04T02:05:11;99099.88;;;7.42;100.00
61484;BME280;47349;55.640;37.692;2023-04-04T02:07:39;99113.69;;;7.45;100.00
61484;BME280;47349;55.640;37.692;2023-04-04T02:10:17;99091.03;;;7.33;100.00
61484;BME280;47349;55.640;37.692;2023-04-04T02:12:44;99097.88;;;7.28;100.00
61484;BME280;47349;55.640;37.692;2023-04-04T02:15:12;99083.06;;;7.25;100.00
61484;BME280;47349;55.640;37.692;2023-04-04T02:17:39;99100.88;;;7.33;100.00
61484;BME280;47349;55.640;37.692;2023-04-04T02:20:07;99085.91;;;7.24;100.00
61484;BME280;47349;55.640;37.692;2023-04-04T02:22:36;99104.88;;;7.29;100.00
61484;BME280;47349;55.640;37.692;2023-04-04T02:25:04;99096.22;;;7.27;100.00
61484;BME280;47349;55.640;37.692;2023-04-04T02:27:32;99081.75;;;7.21;100.00
61484;BME280;47349;55.640;37.692;2023-04-04T02:30:00;99091.41;;;7.22;100.00
61484;BME280;47349;55.640;37.692;2023-04-04T02:32:28;99088.09;;;7.12;100.00
61484;BME280;47349;55.640;37.692;2023-04-04T02:34:55;99088.91;;;7.12;100.00
61484;BME280;47349;55.640;37.692;2023-04-04T02:37:22;99099.06;;;7.09;100.00
61484;BME280;47349;55.640;37.692;2023-04-04T02:39:51;99092.88;;;7.25;100.00
61484;BME280;47349;55.640;37.692;2023-04-04T02:42:19;99097.56;;;7.31;100.00
61484;BME280;47349;55.640;37.692;2023-04-04T02:44:49;99090.53;;;7.30;100.00
61484;BME280;47349;55.640;37.692;2023-04-04T02:47:17;99088.19;;;7.35;100.00
61484;BME280;47349;55.640;37.692;2023-04-04T02:49:44;99093.03;;;7.47;100.00
61484;BME280;47349;55.640;37.692;2023-04-04T02:52:13;99089.00;;;7.52;100.00
61484;BME280;47349;55.640;37.692;2023-04-04T02:54:44;99091.84;;;7.50;100.00
61484;BME280;47349;55.640;37.692;2023-04-04T02:57:23;99092.19;;;7.47;100.00
61484;BME280;47349;55.640;37.692;2023-04-04T02:59:50;99101.34;;;7.53;100.00
61484;BME280;47349;55.640;37.692;2023-04-04T03:02:17;99103.03;;;7.45;100.00
61484;BME280;47349;55.640;37.692;2023-04-04T03:04:44;99103.19;;;7.44;100.00
61484;BME280;47349;55.640;37.692;2023-04-04T03:07:12;99071.09;;;7.21;100.00
61484;BME280;47349;55.640;37.692;2023-04-04T03:09:39;99092.06;;;7.32;100.00
61484;BME280;47349;55.640;37.692;2023-04-04T03:12:10;99085.91;;;7.24;100.00
61484;BME280;47349;55.640;37.692;2023-04-04T03:14:38;99104.00;;;7.44;100.00
61484;BME280;47349;55.640;37.692;2023-04-04T03:17:06;99100.19;;;7.39;100.00
61484;BME280;47349;55.640;37.692;2023-04-04T03:19:35;99093.88;;;7.40;100.00
61484;BME280;47349;55.640;37.692;2023-04-04T03:22:02;99101.19;;;7.46;100.00
61484;BME280;47349;55.640;37.692;2023-04-04T03:24:31;99108.50;;;7.44;100.00
61484;BME280;47349;55.640;37.692;2023-04-04T03:26:59;99112.19;;;7.43;100.00
61484;BME280;47349;55.640;37.692;2023-04-04T03:29:27;99082.22;;;7.25;100.00
61484;BME280;47349;55.640;37.692;2023-04-04T03:31:55;99094.41;;;7.35;100.00
61484;BME280;47349;55.640;37.692;2023-04-04T03:34:22;99104.88;;;7.29;100.00
61484;BME280;47349;55.640;37.692;2023-04-04T03:36:50;99104.38;;;7.33;100.00
61484;BME280;47349;55.640;37.692;2023-04-04T03:39:19;99093.53;;;7.35;100.00
61484;BME280;47349;55.640;37.692;2023-04-04T03:41:46;99106.03;;;7.42;100.00
61484;BME280;47349;55.640;37.692;2023-04-04T03:44:13;99086.88;;;7.39;100.00
61484;BME280;47349;55.640;37.692;2023-04-04T03:46:41;99099.22;;;7.40;100.00
61484;BME280;47349;55.640;37.692;2023-04-04T03:49:11;99102.91;;;7.31;100.00
61484;BME280;47349;55.640;37.692;2023-04-04T03:51:38;99087.75;;;7.23;100.00
61484;BME280;47349;55.640;37.692;2023-04-04T03:54:05;99095.91;;;7.21;100.00
61484;BME280;47349;55.640;37.692;2023-04-04T03:56:33;99111.88;;;7.30;100.00
61484;BME280;47349;55.640;37.692;2023-04-04T03:59:03;99092.91;;;7.08;100.00
61484;BME280;47349;55.640;37.692;2023-04-04T04:01:30;99102.72;;;7.24;100.00
61484;BME280;47349;55.640;37.692;2023-04-04T04:03:57;99089.94;;;7.11;100.00
61484;BME280;47349;55.640;37.692;2023-04-04T04:06:27;99099.91;;;7.09;100.00
61484;BME280;47349;55.640;37.692;2023-04-04T04:08:53;99111.91;;;7.05;100.00
61484;BME280;47349;55.640;37.692;2023-04-04T04:11:22;99116.25;;;7.06;100.00
61484;BME280;47349;55.640;37.692;2023-04-04T04:13:49;99089.75;;;6.88;100.00
61484;BME280;47349;55.640;37.692;2023-04-04T04:16:16;99100.56;;;6.95;100.00
61484;BME280;47349;55.640;37.692;2023-04-04T04:18:44;99094.59;;;6.93;100.00
61484;BME280;47349;55.640;37.692;2023-04-04T04:21:18;99072.97;;;6.88;100.00
61484;BME280;47349;55.640;37.692;2023-04-04T04:23:45;99109.88;;;7.15;100.00
61484;BME280;47349;55.640;37.692;2023-04-04T04:26:12;99082.44;;;7.07;100.00
61484;BME280;47349;55.640;37.692;2023-04-04T04:28:39;99088.09;;;7.12;100.00
61484;BME280;47349;55.640;37.692;2023-04-04T04:31:11;99086.75;;;7.08;100.00
61484;BME280;47349;55.640;37.692;2023-04-04T04:33:45;99099.22;;;7.15;100.00
61484;BME280;47349;55.640;37.692;2023-04-04T04:36:12;99106.88;;;7.35;100.00
61484;BME280;47349;55.640;37.692;2023-04-04T04:39:02;99098.41;;;7.31;100.00
61484;BME280;47349;55.640;37.692;2023-04-04T04:41:34;99103.88;;;7.38;100.00
61484;BME280;47349;55.640;37.692;2023-04-04T04:44:02;99096.22;;;7.18;100.00
61484;BME280;47349;55.640;37.692;2023-04-04T04:46:29;99110.53;;;7.42;100.00
61484;BME280;47349;55.640;37.692;2023-04-04T04:48:59;99101.72;;;7.33;100.00
61484;BME280;47349;55.640;37.692;2023-04-04T04:51:29;99091.22;;;7.32;100.00
61484;BME280;47349;55.640;37.692;2023-04-04T04:53:57;99102.53;;;7.34;100.00
61484;BME280;47349;55.640;37.692;2023-04-04T04:56:26;99108.50;;;7.44;100.00
61484;BME280;47349;55.640;37.692;2023-04-04T04:58:58;99121.88;;;7.36;100.00
61484;BME280;47349;55.640;37.692;2023-04-04T05:01:27;99115.22;;;7.32;100.00
61484;BME280;47349;55.640;37.692;2023-04-04T05:03:56;99116.03;;;7.32;100.00
61484;BME280;47349;55.640;37.692;2023-04-04T05:06:31;99098.22;;;7.33;100.00
61484;BME280;47349;55.640;37.692;2023-04-04T05:08:58;99114.50;;;7.54;100.00
61484;BME280;47349;55.640;37.692;2023-04-04T05:11:30;99096.19;;;7.51;100.00
61484;BME280;47349;55.640;37.692;2023-04-04T05:13:58;99074.84;;;7.51;100.00
61484;BME280;47349;55.640;37.692;2023-04-04T05:16:31;99093.63;;;7.74;99.95
61484;BME280;47349;55.640;37.692;2023-04-04T05:19:00;99086.81;;;7.63;99.83
61484;BME280;47349;55.640;37.692;2023-04-04T05:21:29;99097.84;;;7.60;99.99
61484;BME280;47349;55.640;37.692;2023-04-04T05:23:58;99091.16;;;7.56;100.00
61484;BME280;47349;55.640;37.692;2023-04-04T05:26:27;99094.13;;;7.69;99.81
61484;BME280;47349;55.640;37.692;2023-04-04T05:28:55;99077.94;;;7.79;99.18
61484;BME280;47349;55.640;37.692;2023-04-04T05:31:24;99092.69;;;7.98;99.14
61484;BME280;47349;55.640;37.692;2023-04-04T05:34:14;99095.38;;;7.98;97.57
61484;BME280;47349;55.640;37.692;2023-04-04T05:36:42;99107.63;;;8.15;97.17
61484;BME280;47349;55.640;37.692;2023-04-04T05:39:09;99095.19;;;8.31;96.33
61484;BME280;47349;55.640;37.692;2023-04-04T05:41:56;99099.16;;;8.43;95.50
61484;BME280;47349;55.640;37.692;2023-04-04T05:44:24;99105.00;;;8.46;94.55
61484;BME280;47349;55.640;37.692;2023-04-04T05:46:56;99098.34;;;8.42;95.04
61484;BME280;47349;55.640;37.692;2023-04-04T05:58:34;99099.75;;;8.99;90.84
61484;BME280;47349;55.640;37.692;2023-04-04T06:07:15;99098.78;;;9.15;89.13
61484;BME280;47349;55.640;37.692;2023-04-04T06:09:43;99095.28;;;9.14;89.06
61484;BME280;47349;55.640;37.692;2023-04-04T06:12:10;99076.84;;;9.05;88.78
61484;BME280;47349;55.640;37.692;2023-04-04T06:14:38;99085.81;;;9.26;88.22
61484;BME280;47349;55.640;37.692;2023-04-04T06:17:06;99071.28;;;9.06;87.73
61484;BME280;47349;55.640;37.692;2023-04-04T06:19:34;99103.59;;;9.19;88.44
61484;BME280;47349;55.640;37.692;2023-04-04T06:22:01;99108.00;;;9.12;88.33
61484;BME280;47349;55.640;37.692;2023-04-04T06:24:33;99105.53;;;9.25;87.81
61484;BME280;47349;55.640;37.692;2023-04-04T06:36:25;99074.56;;;9.46;85.45
61484;BME280;47349;55.640;37.692;2023-04-04T06:51:28;99093.19;;;10.13;82.34
61484;BME280;47349;55.640;37.692;2023-04-04T06:53:56;99083.75;;;10.17;82.10
61484;BME280;47349;55.640;37.692;2023-04-04T06:56:24;99090.16;;;10.31;81.78
61484;BME280;47349;55.640;37.692;2023-04-04T06:58:53;99103.19;;;10.55;80.51
61484;BME280;47349;55.640;37.692;2023-04-04T07:01:20;99101.75;;;10.74;78.51
61484;BME280;47349;55.640;37.692;2023-04-04T07:03:51;99086.69;;;10.73;76.30
61484;BME280;47349;55.640;37.692;2023-04-04T07:06:21;99091.53;;;10.85;75.26
61484;BME280;47349;55.640;37.692;2023-04-04T07:08:51;99082.69;;;10.91;74.04
61484;BME280;47349;55.640;37.692;2023-04-04T07:11:19;99112.00;;;11.14;73.48
61484;BME280;47349;55.640;37.692;2023-04-04T07:20:03;99082.97;;;11.24;70.62
61484;BME280;47349;55.640;37.692;2023-04-04T07:22:31;99099.66;;;11.19;67.23
61484;BME280;47349;55.640;37.692;2023-04-04T07:24:58;99093.25;;;11.20;67.52
61484;BME280;47349;55.640;37.692;2023-04-04T07:27:25;99110.25;;;11.27;67.20
61484;BME280;47349;55.640;37.692;2023-04-04T07:29:52;99108.78;;;11.25;67.64
61484;BME280;47349;55.640;37.692;2023-04-04T07:32:19;99096.16;;;11.19;68.72
61484;BME280;47349;55.640;37.692;2023-04-04T07:34:50;99104.06;;;11.27;69.25
61484;BME280;47349;55.640;37.692;2023-04-04T07:37:17;99103.75;;;11.15;69.70
61484;BME280;47349;55.640;37.692;2023-04-04T07:39:44;99121.00;;;11.27;71.54
61484;BME280;47349;55.640;37.692;2023-04-04T07:42:11;99116.25;;;11.29;70.60
61484;BME280;47349;55.640;37.692;2023-04-04T07:54:08;99116.72;;;11.40;72.41
61484;BME280;47349;55.640;37.692;2023-04-04T07:56:35;99101.56;;;11.25;72.99
61484;BME280;47349;55.640;37.692;2023-04-04T08:02:12;99102.53;;;11.46;72.21
61484;BME280;47349;55.640;37.692;2023-04-04T08:04:39;99107.25;;;11.72;71.50
61484;BME280;47349;55.640;37.692;2023-04-04T08:07:06;99120.63;;;11.93;69.24
61484;BME280;47349;55.640;37.692;2023-04-04T08:09:33;99108.59;;;11.82;69.38
61484;BME280;47349;55.640;37.692;2023-04-04T08:12:03;99113.00;;;11.97;66.74
61484;BME280;47349;55.640;37.692;2023-04-04T08:14:32;99107.63;;;11.90;67.05
61484;BME280;47349;55.640;37.692;2023-04-04T08:16:59;99096.81;;;11.83;66.27
61484;BME280;47349;55.640;37.692;2023-04-04T08:19:27;99107.19;;;11.93;65.46
61484;BME280;47349;55.640;37.692;2023-04-04T08:21:57;99115.91;;;11.95;65.76
61484;BME280;47349;55.640;37.692;2023-04-04T08:24:24;99108.66;;;11.96;65.00
61484;BME280;47349;55.640;37.692;2023-04-04T08:26:53;99108.75;;;12.16;64.86
61484;BME280;47349;55.640;37.692;2023-04-04T08:29:31;99115.09;;;12.01;64.93
61484;BME280;47349;55.640;37.692;2023-04-04T08:32:00;99118.03;;;12.13;65.47
61484;BME280;47349;55.640;37.692;2023-04-04T08:34:27;99122.66;;;12.26;66.04
61484;BME280;47349;55.640;37.692;2023-04-04T08:36:55;99099.75;;;12.37;65.30
61484;BME280;47349;55.640;37.692;2023-04-04T08:39:22;99103.69;;;12.41;64.13
61484;BME280;47349;55.640;37.692;2023-04-04T08:41:56;99091.03;;;12.28;64.10
61484;BME280;47349;55.640;37.692;2023-04-04T08:44:27;99116.13;;;12.48;63.95
61484;BME280;47349;55.640;37.692;2023-04-04T08:46:58;99103.06;;;12.39;62.69
61484;BME280;47349;55.640;37.692;2023-04-04T08:49:27;99111.56;;;12.49;63.28
61484;BME280;47349;55.640;37.692;2023-04-04T08:51:55;99119.88;;;12.60;63.63
61484;BME280;47349;55.640;37.692;2023-04-04T08:54:24;99097.91;;;12.44;62.60
61484;BME280;47349;55.640;37.692;2023-04-04T08:56:52;99118.06;;;12.74;62.52
61484;BME280;47349;55.640;37.692;2023-04-04T08:59:20;99120.78;;;12.88;62.48
61484;BME280;47349;55.640;37.692;2023-04-04T09:01:47;99119.34;;;12.92;61.96
61484;BME280;47349;55.640;37.692;2023-04-04T09:04:18;99111.66;;;12.89;62.43
61484;BME280;47349;55.640;37.692;2023-04-04T09:06:47;99125.97;;;13.02;62.23
61484;BME280;47349;55.640;37.692;2023-04-04T09:09:15;99121.81;;;12.86;61.77
61484;BME280;47349;55.640;37.692;2023-04-04T09:11:43;99150.19;;;13.02;62.30
61484;BME280;47349;55.640;37.692;2023-04-04T09:14:12;99131.75;;;12.93;62.81
61484;BME280;47349;55.640;37.692;2023-04-04T09:16:39;99124.06;;;12.83;63.06
61484;BME280;47349;55.640;37.692;2023-04-04T09:19:06;99131.75;;;12.93;62.81
61484;BME280;47349;55.640;37.692;2023-04-04T09:21:34;99121.34;;;12.76;62.48
61484;BME280;47349;55.640;37.692;2023-04-04T09:24:03;99131.06;;;12.71;62.78
61484;BME280;47349;55.640;37.692;2023-04-04T09:29:16;99130.66;;;12.74;63.18
61484;BME280;47349;55.640;37.692;2023-04-04T09:31:44;99140.81;;;12.78;62.63
61484;BME280;47349;55.640;37.692;2023-04-04T09:34:17;99133.56;;;12.85;63.34
61484;BME280;47349;55.640;37.692;2023-04-04T09:36:45;99154.31;;;13.05;63.17
61484;BME280;47349;55.640;37.692;2023-04-04T09:39:13;99138.16;;;12.98;62.83
61484;BME280;47349;55.640;37.692;2023-04-04T09:41:43;99147.69;;;13.14;62.60
61484;BME280;47349;55.640;37.692;2023-04-04T09:44:12;99123.28;;;13.09;62.35
61484;BME280;47349;55.640;37.692;2023-04-04T09:46:40;99138.19;;;13.18;62.62
61484;BME280;47349;55.640;37.692;2023-04-04T09:49:17;99155.00;;;13.33;62.58
61484;BME280;47349;55.640;37.692;2023-04-04T09:54:55;99148.59;;;13.54;62.43
61484;BME280;47349;55.640;37.692;2023-04-04T10:00:39;99162.41;;;13.78;61.99
61484;BME280;47349;55.640;37.692;2023-04-04T10:03:10;99152.88;;;13.82;60.99
61484;BME280;47349;55.640;37.692;2023-04-04T10:05:37;99145.63;;;13.82;60.94
61484;BME280;47349;55.640;37.692;2023-04-04T10:08:26;99151.44;;;13.93;59.72
61484;BME280;47349;55.640;37.692;2023-04-04T10:11:01;99158.69;;;13.99;59.76
61484;BME280;47349;55.640;37.692;2023-04-04T10:13:38;99145.41;;;14.04;59.15
61484;BME280;47349;55.640;37.692;2023-04-04T10:16:08;99148.44;;;14.21;59.31
61484;BME280;47349;55.640;37.692;2023-04-04T10:18:56;99158.13;;;14.42;58.70
61484;BME280;47349;55.640;37.692;2023-04-04T10:21:25;99153.97;;;14.39;58.66
61484;BME280;47349;55.640;37.692;2023-04-04T10:24:11;99153.38;;;14.37;58.01
61484;BME280;47349;55.640;37.692;2023-04-04T10:26:42;99151.50;;;14.31;57.70
61484;BME280;47349;55.640;37.692;2023-04-04T10:29:09;99146.16;;;14.24;57.59
61484;BME280;47349;55.640;37.692;2023-04-04T10:31:39;99145.97;;;14.19;58.48
61484;BME280;47349;55.640;37.692;2023-04-04T10:34:24;99143.13;;;14.01;57.58
61484;BME280;47349;55.640;37.692;2023-04-04T10:37:05;99149.56;;;13.93;57.63
61484;BME280;47349;55.640;37.692;2023-04-04T10:45:20;99156.03;;;13.66;57.42
61484;BME280;47349;55.640;37.692;2023-04-04T10:47:49;99154.56;;;13.56;58.50
61484;BME280;47349;55.640;37.692;2023-04-04T10:50:19;99173.41;;;13.76;57.76
61484;BME280;47349;55.640;37.692;2023-04-04T10:53:05;99180.44;;;13.91;56.23
61484;BME280;47349;55.640;37.692;2023-04-04T10:55:33;99160.16;;;13.88;56.70
61484;BME280;47349;55.640;37.692;2023-04-04T10:58:04;99175.63;;;14.06;56.17
61484;BME280;47349;55.640;37.692;2023-04-04T11:00:32;99154.09;;;14.12;55.59
61484;BME280;47349;55.640;37.692;2023-04-04T11:03:00;99163.59;;;14.22;55.22
61484;BME280;47349;55.640;37.692;2023-04-04T11:05:34;99163.56;;;14.28;55.23
61484;BME280;47349;55.640;37.692;2023-04-04T11:08:26;99161.53;;;14.17;55.41
61484;BME280;47349;55.640;37.692;2023-04-04T11:20:53;99157.41;;;14.08;55.33
61484;BME280;47349;55.640;37.692;2023-04-04T11:23:20;99157.00;;;14.04;55.18
61484;BME280;47349;55.640;37.692;2023-04-04T11:34:31;99159.25;;;14.14;53.81
61484;BME280;47349;55.640;37.692;2023-04-04T11:37:14;99150.56;;;14.05;53.91
61484;BME280;47349;55.640;37.692;2023-04-04T11:39:47;99159.03;;;14.15;53.29
61484;BME280;47349;55.640;37.692;2023-04-04T11:42:23;99154.91;;;14.06;53.81
61484;BME280;47349;55.640;37.692;2023-04-04T12:06:34;99165.53;;;13.88;54.74
61484;BME280;47349;55.640;37.692;2023-04-04T12:12:12;99149.38;;;13.81;53.83
61484;BME280;47349;55.640;37.692;2023-04-04T12:14:43;99149.81;;;13.78;53.97
61484;BME280;47349;55.640;37.692;2023-04-04T12:20:21;99166.34;;;13.95;54.28
61484;BME280;47349;55.640;37.692;2023-04-04T12:29:40;99129.91;;;13.79;55.38
61484;BME280;47349;55.640;37.692;2023-04-04T12:35:52;99178.34;;;14.12;55.99
61484;BME280;47349;55.640;37.692;2023-04-04T12:38:55;99178.72;;;14.16;54.47
61484;BME280;47349;55.640;37.692;2023-04-04T12:41:24;99162.16;;;14.06;53.74
61484;BME280;47349;55.640;37.692;2023-04-04T12:43:51;99177.50;;;14.12;54.51
61484;BME280;47349;55.640;37.692;2023-04-04T12:46:25;99187.44;;;14.18;53.57
61484;BME280;47349;55.640;37.692;2023-04-04T12:48:53;99170.88;;;14.08;53.62
61484;BME280;47349;55.640;37.692;2023-04-04T12:51:29;99169.84;;;14.09;53.89
61484;BME280;47349;55.640;37.692;2023-04-04T12:53:56;99180.81;;;14.14;53.72
61484;BME280;47349;55.640;37.692;2023-04-04T12:56:27;99184.94;;;14.23;53.52
61484;BME280;47349;55.640;37.692;2023-04-04T12:59:02;99184.13;;;14.23;53.55
61484;BME280;47349;55.640;37.692;2023-04-04T13:01:32;99190.53;;;14.28;53.33
61484;BME280;47349;55.640;37.692;2023-04-04T13:04:03;99173.34;;;14.23;53.57
61484;BME280;47349;55.640;37.692;2023-04-04T13:06:31;99184.09;;;14.29;54.79
61484;BME280;47349;55.640;37.692;2023-04-04T13:08:58;99184.50;;;14.33;54.44
61484;BME280;47349;55.640;37.692;2023-04-04T13:14:27;99200.63;;;14.39;52.88
61484;BME280;47349;55.640;37.692;2023-04-04T13:17:03;99201.88;;;14.44;54.40
61484;BME280;47349;55.640;37.692;2023-04-04T13:19:51;99204.78;;;14.55;53.36
61484;BME280;47349;55.640;37.692;2023-04-04T13:22:18;99189.03;;;14.46;52.41
61484;BME280;47349;55.640;37.692;2023-04-04T13:24:45;99192.31;;;14.54;53.13
61484;BME280;47349;55.640;37.692;2023-04-04T13:27:12;99195.44;;;14.58;52.47
61484;BME280;47349;55.640;37.692;2023-04-04T13:29:39;99201.25;;;14.55;52.36
61484;BME280;47349;55.640;37.692;2023-04-04T13:32:07;99207.25;;;14.57;52.84
61484;BME280;47349;55.640;37.692;2023-04-04T13:34:35;99206.81;;;14.60;52.52
61484;BME280;47349;55.640;37.692;2023-04-04T13:37:02;99216.78;;;14.66;52.90
61484;BME280;47349;55.640;37.692;2023-04-04T13:39:29;99205.56;;;14.62;56.31
61484;BME280;47349;55.640;37.692;2023-04-04T13:41:56;99213.84;;;14.68;52.75
61484;BME280;47349;55.640;37.692;2023-04-04T13:44:23;99216.97;;;14.71;53.16
61484;BME280;47349;55.640;37.692;2023-04-04T13:46:52;99217.56;;;14.73;52.50
61484;BME280;47349;55.640;37.692;2023-04-04T13:49:20;99208.50;;;14.61;52.40
61484;BME280;47349;55.640;37.692;2023-04-04T13:51:47;99222.63;;;14.56;52.11
61484;BME280;47349;55.640;37.692;2023-04-04T13:54:14;99225.31;;;14.50;52.62
61484;BME280;47349;55.640;37.692;2023-04-04T13:56:42;99222.63;;;14.56;54.91
61484;BME280;47349;55.640;37.692;2023-04-04T13:59:10;99198.97;;;14.45;54.21
61484;BME280;47349;55.640;37.692;2023-04-04T14:01:40;99199.59;;;14.47;52.92
61484;BME280;47349;55.640;37.692;2023-04-04T14:04:07;99209.38;;;14.42;52.59
61484;BME280;47349;55.640;37.692;2023-04-04T14:06:49;99194.47;;;14.26;52.97
61484;BME280;47349;55.640;37.692;2023-04-04T14:09:17;99198.41;;;14.23;53.55
61484;BME280;47349;55.640;37.692;2023-04-04T14:11:44;99205.25;;;14.26;54.07
61484;BME280;47349;55.640;37.692;2023-04-04T14:14:12;99204.00;;;14.28;53.84
61484;BME280;47349;55.640;37.692;2023-04-04T14:16:39;99213.94;;;14.34;53.77
61484;BME280;47349;55.640;37.692;2023-04-04T14:19:07;99208.53;;;14.34;53.86
61484;BME280;47349;55.640;37.692;2023-04-04T14:21:34;99210.00;;;14.30;53.94
61484;BME280;47349;55.640;37.692;2023-04-04T14:24:02;99211.88;;;14.30;54.15
61484;BME280;47349;55.640;37.692;2023-04-04T14:26:29;99206.06;;;14.26;53.96
61484;BME280;47349;55.640;37.692;2023-04-04T14:28:58;99194.09;;;14.09;54.32
61484;BME280;47349;55.640;37.692;2023-04-04T14:31:25;99192.00;;;14.11;54.68
61484;BME280;47349;55.640;37.692;2023-04-04T14:33:52;99208.19;;;14.11;54.33
61484;BME280;47349;55.640;37.692;2023-04-04T14:36:20;99202.41;;;14.07;54.23
61484;BME280;47349;55.640;37.692;2023-04-04T14:38:47;99205.28;;;14.06;54.31
61484;BME280;47349;55.640;37.692;2023-04-04T14:41:15;99203.22;;;14.01;54.40
61484;BME280;47349;55.640;37.692;2023-04-04T14:43:42;99225.38;;;14.10;54.74
61484;BME280;47349;55.640;37.692;2023-04-04T14:46:11;99216.09;;;13.99;54.36
61484;BME280;47349;55.640;37.692;2023-04-04T14:48:38;99224.78;;;14.01;54.74
61484;BME280;47349;55.640;37.692;2023-04-04T14:54:02;99233.47;;;13.97;54.73
61484;BME280;47349;55.640;37.692;2023-04-04T14:59:39;99225.22;;;13.85;54.31
61484;BME280;47349;55.640;37.692;2023-04-04T15:05:23;99240.13;;;13.74;54.07
61484;BME280;47349;55.640;37.692;2023-04-04T15:07:55;99238.88;;;13.70;54.23
61484;BME280;47349;55.640;37.692;2023-04-04T15:10:23;99236.59;;;13.67;54.18
61484;BME280;47349;55.640;37.692;2023-04-04T15:19:25;99224.38;;;13.51;54.68
61484;BME280;47349;55.640;37.692;2023-04-04T15:21:54;99233.91;;;13.54;54.61
61484;BME280;47349;55.640;37.692;2023-04-04T15:24:26;99207.38;;;13.37;54.31
61484;BME280;47349;55.640;37.692;2023-04-04T15:26:53;99239.31;;;13.54;54.70
61484;BME280;47349;55.640;37.692;2023-04-04T15:29:23;99216.72;;;13.42;54.78
61484;BME280;47349;55.640;37.692;2023-04-04T15:31:50;99226.44;;;13.43;54.93